Terminal Aerodrome Forecast
Issued by NWS Wilmington, NC

Home | Current Version | Previous Version | Text Only | Print | Product List | Glossary On
Versions: 1 2 3 4 5 6 7 8 9 10 11 12 13 14 15 16 17 18 19 20 21 22 23 24 25 26 27 28 29 30
000
FTUS42 KILM 040800 AAA
TAFILM
TAF AMD
KILM 040831Z 0409/0506 21002KT 1/4SM FG OVC002 WS010/22030KT
     FM041200 22006KT 2SM BR BKN002 WS010/23038KT
     FM041500 22013G22KT 6SM BR BKN008
     FM041800 22013G20KT P6SM BKN020
     FM050100 21010KT 4SM BR BKN002=

USA.gov is the U.S. government's official web portal to all federal, state and local government web resources and services.